sensor_id;sensor_type;location;lat;lon;timestamp;P1;durP1;ratioP1;P2;durP2;ratioP2
52686;SDS011;38584;49.426;8.396;2023-01-28T00:00:08;12.82;;;5.72;;
52686;SDS011;38584;49.426;8.396;2023-01-28T00:02:34;14.00;;;6.80;;
52686;SDS011;38584;49.426;8.396;2023-01-28T00:04:59;14.27;;;6.88;;
52686;SDS011;38584;49.426;8.396;2023-01-28T00:07:25;15.48;;;7.35;;
52686;SDS011;38584;49.426;8.396;2023-01-28T00:09:50;13.23;;;6.43;;
52686;SDS011;38584;49.426;8.396;2023-01-28T00:12:16;13.18;;;6.40;;
52686;SDS011;38584;49.426;8.396;2023-01-28T00:14:41;12.25;;;6.13;;
52686;SDS011;38584;49.426;8.396;2023-01-28T00:17:06;12.73;;;5.90;;
52686;SDS011;38584;49.426;8.396;2023-01-28T00:19:31;15.50;;;5.97;;
52686;SDS011;38584;49.426;8.396;2023-01-28T00:21:57;14.90;;;6.68;;
52686;SDS011;38584;49.426;8.396;2023-01-28T00:24:22;14.00;;;6.25;;
52686;SDS011;38584;49.426;8.396;2023-01-28T00:26:47;13.95;;;5.82;;
52686;SDS011;38584;49.426;8.396;2023-01-28T00:29:13;13.13;;;6.05;;
52686;SDS011;38584;49.426;8.396;2023-01-28T00:31:38;14.68;;;6.47;;
52686;SDS011;38584;49.426;8.396;2023-01-28T00:34:04;13.43;;;6.40;;
52686;SDS011;38584;49.426;8.396;2023-01-28T00:36:30;15.13;;;6.10;;
52686;SDS011;38584;49.426;8.396;2023-01-28T00:38:56;13.93;;;6.25;;
52686;SDS011;38584;49.426;8.396;2023-01-28T00:41:23;12.95;;;5.80;;
52686;SDS011;38584;49.426;8.396;2023-01-28T00:43:50;14.77;;;5.95;;
52686;SDS011;38584;49.426;8.396;2023-01-28T00:46:16;12.60;;;5.90;;
52686;SDS011;38584;49.426;8.396;2023-01-28T00:48:42;14.05;;;5.40;;
52686;SDS011;38584;49.426;8.396;2023-01-28T00:51:10;12.57;;;5.15;;
52686;SDS011;38584;49.426;8.396;2023-01-28T00:53:36;12.98;;;5.75;;
52686;SDS011;38584;49.426;8.396;2023-01-28T00:56:03;11.68;;;5.20;;
52686;SDS011;38584;49.426;8.396;2023-01-28T00:58:29;14.23;;;5.40;;
52686;SDS011;38584;49.426;8.396;2023-01-28T01:00:54;12.18;;;5.40;;
52686;SDS011;38584;49.426;8.396;2023-01-28T01:03:20;11.90;;;5.82;;
52686;SDS011;38584;49.426;8.396;2023-01-28T01:05:45;14.43;;;6.22;;
52686;SDS011;38584;49.426;8.396;2023-01-28T01:08:11;13.65;;;6.38;;
52686;SDS011;38584;49.426;8.396;2023-01-28T01:10:36;13.45;;;6.13;;
52686;SDS011;38584;49.426;8.396;2023-01-28T01:13:03;11.88;;;5.70;;
52686;SDS011;38584;49.426;8.396;2023-01-28T01:15:29;12.70;;;5.55;;
52686;SDS011;38584;49.426;8.396;2023-01-28T01:17:55;13.18;;;6.07;;
52686;SDS011;38584;49.426;8.396;2023-01-28T01:20:22;13.20;;;5.97;;
52686;SDS011;38584;49.426;8.396;2023-01-28T01:22:49;12.50;;;6.22;;
52686;SDS011;38584;49.426;8.396;2023-01-28T01:25:15;13.38;;;5.78;;
52686;SDS011;38584;49.426;8.396;2023-01-28T01:27:41;12.48;;;5.47;;
52686;SDS011;38584;49.426;8.396;2023-01-28T01:30:07;11.57;;;5.45;;
52686;SDS011;38584;49.426;8.396;2023-01-28T01:32:34;11.93;;;5.63;;
52686;SDS011;38584;49.426;8.396;2023-01-28T01:35:00;13.57;;;5.60;;
52686;SDS011;38584;49.426;8.396;2023-01-28T01:37:26;12.40;;;5.63;;
52686;SDS011;38584;49.426;8.396;2023-01-28T01:39:52;14.60;;;5.93;;
52686;SDS011;38584;49.426;8.396;2023-01-28T01:42:17;12.30;;;5.25;;
52686;SDS011;38584;49.426;8.396;2023-01-28T01:49:59;10.68;;;4.55;;
52686;SDS011;38584;49.426;8.396;2023-01-28T01:52:29;13.55;;;5.50;;
52686;SDS011;38584;49.426;8.396;2023-01-28T01:54:57;11.27;;;4.43;;
52686;SDS011;38584;49.426;8.396;2023-01-28T01:57:25;12.18;;;5.00;;
52686;SDS011;38584;49.426;8.396;2023-01-28T01:59:53;11.70;;;5.30;;
52686;SDS011;38584;49.426;8.396;2023-01-28T02:02:18;12.40;;;4.90;;
52686;SDS011;38584;49.426;8.396;2023-01-28T02:04:44;10.73;;;4.57;;
52686;SDS011;38584;49.426;8.396;2023-01-28T02:07:13;11.82;;;4.95;;
52686;SDS011;38584;49.426;8.396;2023-01-28T02:09:39;10.65;;;4.50;;
52686;SDS011;38584;49.426;8.396;2023-01-28T02:12:09;11.48;;;4.47;;
52686;SDS011;38584;49.426;8.396;2023-01-28T02:14:38;10.55;;;4.38;;
52686;SDS011;38584;49.426;8.396;2023-01-28T02:17:06;10.73;;;4.50;;
52686;SDS011;38584;49.426;8.396;2023-01-28T02:19:35;11.70;;;4.70;;
52686;SDS011;38584;49.426;8.396;2023-01-28T02:30:41;13.75;;;4.85;;
52686;SDS011;38584;49.426;8.396;2023-01-28T02:33:18;12.07;;;5.00;;
52686;SDS011;38584;49.426;8.396;2023-01-28T02:35:53;12.18;;;5.40;;
52686;SDS011;38584;49.426;8.396;2023-01-28T02:38:27;12.50;;;5.55;;
52686;SDS011;38584;49.426;8.396;2023-01-28T02:40:58;13.02;;;5.18;;
52686;SDS011;38584;49.426;8.396;2023-01-28T02:48:58;12.30;;;4.90;;
52686;SDS011;38584;49.426;8.396;2023-01-28T02:54:24;11.45;;;4.70;;
52686;SDS011;38584;49.426;8.396;2023-01-28T02:59:41;11.98;;;4.80;;
52686;SDS011;38584;49.426;8.396;2023-01-28T03:02:13;12.23;;;5.03;;
52686;SDS011;38584;49.426;8.396;2023-01-28T03:04:51;11.57;;;5.00;;
52686;SDS011;38584;49.426;8.396;2023-01-28T03:17:21;11.73;;;4.93;;
52686;SDS011;38584;49.426;8.396;2023-01-28T03:20:11;12.95;;;5.28;;
52686;SDS011;38584;49.426;8.396;2023-01-28T03:22:56;11.80;;;5.18;;
52686;SDS011;38584;49.426;8.396;2023-01-28T03:25:45;14.38;;;5.38;;
52686;SDS011;38584;49.426;8.396;2023-01-28T03:28:32;13.70;;;5.30;;
52686;SDS011;38584;49.426;8.396;2023-01-28T03:31:17;14.48;;;5.82;;
52686;SDS011;38584;49.426;8.396;2023-01-28T03:34:05;11.57;;;5.05;;
52686;SDS011;38584;49.426;8.396;2023-01-28T03:36:54;12.02;;;5.30;;
52686;SDS011;38584;49.426;8.396;2023-01-28T03:39:26;12.13;;;4.90;;
52686;SDS011;38584;49.426;8.396;2023-01-28T03:44:22;12.93;;;5.50;;
52686;SDS011;38584;49.426;8.396;2023-01-28T03:47:06;12.32;;;4.55;;
52686;SDS011;38584;49.426;8.396;2023-01-28T03:49:35;12.43;;;5.10;;
52686;SDS011;38584;49.426;8.396;2023-01-28T03:52:03;12.45;;;5.13;;
52686;SDS011;38584;49.426;8.396;2023-01-28T03:54:28;13.30;;;5.43;;
52686;SDS011;38584;49.426;8.396;2023-01-28T03:56:54;13.63;;;5.55;;
52686;SDS011;38584;49.426;8.396;2023-01-28T03:59:19;15.73;;;5.95;;
52686;SDS011;38584;49.426;8.396;2023-01-28T04:01:47;12.77;;;5.25;;
52686;SDS011;38584;49.426;8.396;2023-01-28T04:04:14;13.13;;;5.30;;
52686;SDS011;38584;49.426;8.396;2023-01-28T04:06:48;14.20;;;4.88;;
52686;SDS011;38584;49.426;8.396;2023-01-28T04:09:14;12.25;;;4.90;;
52686;SDS011;38584;49.426;8.396;2023-01-28T04:11:42;11.88;;;4.90;;
52686;SDS011;38584;49.426;8.396;2023-01-28T04:14:07;12.98;;;4.97;;
52686;SDS011;38584;49.426;8.396;2023-01-28T04:16:33;11.50;;;5.00;;
52686;SDS011;38584;49.426;8.396;2023-01-28T04:18:58;10.85;;;4.20;;
52686;SDS011;38584;49.426;8.396;2023-01-28T04:21:24;11.43;;;4.70;;
52686;SDS011;38584;49.426;8.396;2023-01-28T04:23:52;11.25;;;4.80;;
52686;SDS011;38584;49.426;8.396;2023-01-28T04:26:17;11.70;;;4.90;;
52686;SDS011;38584;49.426;8.396;2023-01-28T04:28:43;13.40;;;4.95;;
52686;SDS011;38584;49.426;8.396;2023-01-28T04:31:08;12.63;;;5.07;;
52686;SDS011;38584;49.426;8.396;2023-01-28T04:33:33;12.13;;;4.82;;
52686;SDS011;38584;49.426;8.396;2023-01-28T04:36:02;12.98;;;5.28;;
52686;SDS011;38584;49.426;8.396;2023-01-28T04:38:27;10.88;;;4.93;;
52686;SDS011;38584;49.426;8.396;2023-01-28T04:40:52;13.52;;;5.05;;
52686;SDS011;38584;49.426;8.396;2023-01-28T04:43:21;12.10;;;5.10;;
52686;SDS011;38584;49.426;8.396;2023-01-28T04:45:47;13.52;;;5.57;;
52686;SDS011;38584;49.426;8.396;2023-01-28T04:48:13;13.80;;;5.50;;
52686;SDS011;38584;49.426;8.396;2023-01-28T04:50:45;13.80;;;6.03;;
52686;SDS011;38584;49.426;8.396;2023-01-28T04:53:10;13.68;;;4.95;;
52686;SDS011;38584;49.426;8.396;2023-01-28T04:55:45;14.93;;;5.45;;
52686;SDS011;38584;49.426;8.396;2023-01-28T04:58:11;13.35;;;5.03;;
52686;SDS011;38584;49.426;8.396;2023-01-28T05:00:36;13.20;;;4.97;;
52686;SDS011;38584;49.426;8.396;2023-01-28T05:03:01;12.60;;;5.20;;
52686;SDS011;38584;49.426;8.396;2023-01-28T05:05:26;13.00;;;5.10;;
52686;SDS011;38584;49.426;8.396;2023-01-28T05:07:52;16.55;;;5.78;;
52686;SDS011;38584;49.426;8.396;2023-01-28T05:10:18;12.88;;;5.10;;
52686;SDS011;38584;49.426;8.396;2023-01-28T05:12:44;13.55;;;5.28;;
52686;SDS011;38584;49.426;8.396;2023-01-28T05:15:11;12.48;;;5.30;;
52686;SDS011;38584;49.426;8.396;2023-01-28T05:17:37;12.27;;;5.07;;
52686;SDS011;38584;49.426;8.396;2023-01-28T05:20:03;11.48;;;4.38;;
52686;SDS011;38584;49.426;8.396;2023-01-28T05:22:29;11.85;;;4.38;;
52686;SDS011;38584;49.426;8.396;2023-01-28T05:24:54;13.98;;;4.68;;
52686;SDS011;38584;49.426;8.396;2023-01-28T05:27:19;10.65;;;4.20;;
52686;SDS011;38584;49.426;8.396;2023-01-28T05:29:45;20.13;;;5.95;;
52686;SDS011;38584;49.426;8.396;2023-01-28T05:32:10;12.57;;;4.22;;
52686;SDS011;38584;49.426;8.396;2023-01-28T05:34:35;11.55;;;4.25;;
52686;SDS011;38584;49.426;8.396;2023-01-28T05:37:00;11.90;;;4.20;;
52686;SDS011;38584;49.426;8.396;2023-01-28T05:39:26;10.75;;;4.07;;
52686;SDS011;38584;49.426;8.396;2023-01-28T05:41:51;10.05;;;3.80;;
52686;SDS011;38584;49.426;8.396;2023-01-28T05:44:16;10.65;;;4.00;;
52686;SDS011;38584;49.426;8.396;2023-01-28T05:46:45;9.88;;;3.83;;
52686;SDS011;38584;49.426;8.396;2023-01-28T05:49:11;6.88;;;3.30;;
52686;SDS011;38584;49.426;8.396;2023-01-28T05:51:38;10.52;;;4.13;;
52686;SDS011;38584;49.426;8.396;2023-01-28T05:54:09;10.23;;;4.10;;
52686;SDS011;38584;49.426;8.396;2023-01-28T05:56:38;12.50;;;3.85;;
52686;SDS011;38584;49.426;8.396;2023-01-28T05:59:09;10.32;;;3.90;;
52686;SDS011;38584;49.426;8.396;2023-01-28T06:01:35;10.60;;;4.13;;
52686;SDS011;38584;49.426;8.396;2023-01-28T06:04:00;11.73;;;4.30;;
52686;SDS011;38584;49.426;8.396;2023-01-28T06:06:28;11.30;;;3.55;;
52686;SDS011;38584;49.426;8.396;2023-01-28T06:08:54;11.25;;;4.18;;
52686;SDS011;38584;49.426;8.396;2023-01-28T06:11:19;10.77;;;4.15;;
52686;SDS011;38584;49.426;8.396;2023-01-28T06:13:44;11.65;;;4.60;;
52686;SDS011;38584;49.426;8.396;2023-01-28T06:16:13;10.23;;;4.40;;
52686;SDS011;38584;49.426;8.396;2023-01-28T06:18:38;10.98;;;4.38;;
52686;SDS011;38584;49.426;8.396;2023-01-28T06:21:05;11.00;;;4.28;;
52686;SDS011;38584;49.426;8.396;2023-01-28T06:23:30;12.27;;;5.00;;
52686;SDS011;38584;49.426;8.396;2023-01-28T06:25:56;13.45;;;5.20;;
52686;SDS011;38584;49.426;8.396;2023-01-28T06:28:24;11.65;;;4.65;;
52686;SDS011;38584;49.426;8.396;2023-01-28T06:30:53;13.60;;;5.57;;
52686;SDS011;38584;49.426;8.396;2023-01-28T06:33:18;12.63;;;5.70;;
52686;SDS011;38584;49.426;8.396;2023-01-28T06:35:44;16.27;;;6.60;;
52686;SDS011;38584;49.426;8.396;2023-01-28T06:38:10;15.98;;;7.03;;
52686;SDS011;38584;49.426;8.396;2023-01-28T06:40:35;17.15;;;6.95;;
52686;SDS011;38584;49.426;8.396;2023-01-28T06:43:01;13.23;;;6.50;;
52686;SDS011;38584;49.426;8.396;2023-01-28T06:45:27;14.60;;;6.90;;
52686;SDS011;38584;49.426;8.396;2023-01-28T06:47:52;15.68;;;7.18;;
52686;SDS011;38584;49.426;8.396;2023-01-28T06:50:20;18.83;;;7.50;;
52686;SDS011;38584;49.426;8.396;2023-01-28T06:52:46;16.67;;;8.07;;
52686;SDS011;38584;49.426;8.396;2023-01-28T06:55:11;16.63;;;7.97;;
52686;SDS011;38584;49.426;8.396;2023-01-28T06:57:37;16.48;;;7.60;;
52686;SDS011;38584;49.426;8.396;2023-01-28T07:00:04;16.17;;;6.88;;
52686;SDS011;38584;49.426;8.396;2023-01-28T07:02:30;16.58;;;7.35;;
52686;SDS011;38584;49.426;8.396;2023-01-28T07:04:56;16.30;;;7.28;;
52686;SDS011;38584;49.426;8.396;2023-01-28T07:07:21;18.90;;;7.65;;
52686;SDS011;38584;49.426;8.396;2023-01-28T07:09:46;18.75;;;7.68;;
52686;SDS011;38584;49.426;8.396;2023-01-28T07:12:14;19.35;;;8.30;;
52686;SDS011;38584;49.426;8.396;2023-01-28T07:14:43;18.25;;;8.75;;
52686;SDS011;38584;49.426;8.396;2023-01-28T07:17:08;18.38;;;8.30;;
52686;SDS011;38584;49.426;8.396;2023-01-28T07:19:33;18.80;;;7.90;;
52686;SDS011;38584;49.426;8.396;2023-01-28T07:21:59;16.77;;;7.60;;
52686;SDS011;38584;49.426;8.396;2023-01-28T07:24:26;16.63;;;8.60;;
52686;SDS011;38584;49.426;8.396;2023-01-28T07:26:55;15.23;;;7.85;;
52686;SDS011;38584;49.426;8.396;2023-01-28T07:29:21;14.90;;;7.40;;
52686;SDS011;38584;49.426;8.396;2023-01-28T07:31:48;18.20;;;7.95;;
52686;SDS011;38584;49.426;8.396;2023-01-28T07:34:23;15.73;;;7.85;;
52686;SDS011;38584;49.426;8.396;2023-01-28T07:36:52;17.80;;;8.10;;
52686;SDS011;38584;49.426;8.396;2023-01-28T07:39:18;18.10;;;8.23;;
52686;SDS011;38584;49.426;8.396;2023-01-28T07:41:43;19.45;;;7.57;;
52686;SDS011;38584;49.426;8.396;2023-01-28T07:44:09;18.00;;;8.13;;
52686;SDS011;38584;49.426;8.396;2023-01-28T07:46:34;16.98;;;7.53;;
52686;SDS011;38584;49.426;8.396;2023-01-28T07:49:00;18.90;;;7.60;;
52686;SDS011;38584;49.426;8.396;2023-01-28T07:51:26;17.58;;;7.95;;
52686;SDS011;38584;49.426;8.396;2023-01-28T07:53:51;15.20;;;7.20;;
52686;SDS011;38584;49.426;8.396;2023-01-28T07:56:16;15.25;;;6.75;;
52686;SDS011;38584;49.426;8.396;2023-01-28T07:58:43;18.50;;;7.55;;
52686;SDS011;38584;49.426;8.396;2023-01-28T08:01:08;16.15;;;7.07;;
52686;SDS011;38584;49.426;8.396;2023-01-28T08:03:33;18.10;;;7.03;;
52686;SDS011;38584;49.426;8.396;2023-01-28T08:05:59;13.38;;;6.38;;
52686;SDS011;38584;49.426;8.396;2023-01-28T08:08:25;15.23;;;6.07;;
52686;SDS011;38584;49.426;8.396;2023-01-28T08:10:54;14.40;;;6.45;;
52686;SDS011;38584;49.426;8.396;2023-01-28T08:13:19;16.77;;;7.40;;
52686;SDS011;38584;49.426;8.396;2023-01-28T08:15:45;16.95;;;6.82;;
52686;SDS011;38584;49.426;8.396;2023-01-28T08:18:11;13.13;;;5.85;;
52686;SDS011;38584;49.426;8.396;2023-01-28T08:20:38;14.90;;;6.70;;
52686;SDS011;38584;49.426;8.396;2023-01-28T08:23:07;13.15;;;6.35;;
52686;SDS011;38584;49.426;8.396;2023-01-28T08:25:33;13.65;;;6.55;;
52686;SDS011;38584;49.426;8.396;2023-01-28T08:27:59;14.88;;;7.00;;
52686;SDS011;38584;49.426;8.396;2023-01-28T08:30:27;14.95;;;6.32;;
52686;SDS011;38584;49.426;8.396;2023-01-28T08:32:56;14.52;;;6.10;;
52686;SDS011;38584;49.426;8.396;2023-01-28T08:35:23;15.23;;;6.28;;
52686;SDS011;38584;49.426;8.396;2023-01-28T08:37:49;14.20;;;6.25;;
52686;SDS011;38584;49.426;8.396;2023-01-28T08:40:15;15.60;;;5.78;;
52686;SDS011;38584;49.426;8.396;2023-01-28T08:42:45;14.13;;;5.93;;
52686;SDS011;38584;49.426;8.396;2023-01-28T08:45:12;14.60;;;5.95;;
52686;SDS011;38584;49.426;8.396;2023-01-28T08:47:46;15.57;;;5.85;;
52686;SDS011;38584;49.426;8.396;2023-01-28T08:50:14;15.60;;;6.65;;
52686;SDS011;38584;49.426;8.396;2023-01-28T08:52:41;18.10;;;6.80;;
52686;SDS011;38584;49.426;8.396;2023-01-28T08:55:08;15.32;;;6.75;;
52686;SDS011;38584;49.426;8.396;2023-01-28T08:57:35;15.52;;;6.55;;
52686;SDS011;38584;49.426;8.396;2023-01-28T09:00:01;14.15;;;6.47;;
52686;SDS011;38584;49.426;8.396;2023-01-28T09:02:26;16.45;;;7.05;;
52686;SDS011;38584;49.426;8.396;2023-01-28T09:04:52;16.80;;;6.88;;
52686;SDS011;38584;49.426;8.396;2023-01-28T09:07:17;16.20;;;6.70;;
52686;SDS011;38584;49.426;8.396;2023-01-28T09:09:46;15.10;;;6.57;;
52686;SDS011;38584;49.426;8.396;2023-01-28T09:12:17;18.20;;;6.80;;
52686;SDS011;38584;49.426;8.396;2023-01-28T09:14:46;15.63;;;6.70;;
52686;SDS011;38584;49.426;8.396;2023-01-28T09:17:11;15.32;;;6.53;;
52686;SDS011;38584;49.426;8.396;2023-01-28T09:19:36;16.13;;;7.18;;
52686;SDS011;38584;49.426;8.396;2023-01-28T09:22:04;15.55;;;6.63;;
52686;SDS011;38584;49.426;8.396;2023-01-28T09:24:30;16.50;;;6.32;;
52686;SDS011;38584;49.426;8.396;2023-01-28T09:26:55;14.50;;;5.88;;
52686;SDS011;38584;49.426;8.396;2023-01-28T09:29:21;14.82;;;5.75;;
52686;SDS011;38584;49.426;8.396;2023-01-28T09:31:48;14.23;;;5.72;;
52686;SDS011;38584;49.426;8.396;2023-01-28T09:34:14;12.63;;;5.35;;
52686;SDS011;38584;49.426;8.396;2023-01-28T09:36:39;11.82;;;5.82;;
52686;SDS011;38584;49.426;8.396;2023-01-28T09:39:04;13.02;;;5.22;;
52686;SDS011;38584;49.426;8.396;2023-01-28T09:44:02;13.90;;;6.00;;
52686;SDS011;38584;49.426;8.396;2023-01-28T09:46:34;13.52;;;5.40;;
52686;SDS011;38584;49.426;8.396;2023-01-28T09:49:02;13.52;;;5.50;;
52686;SDS011;38584;49.426;8.396;2023-01-28T09:51:49;12.15;;;5.30;;
52686;SDS011;38584;49.426;8.396;2023-01-28T09:56:49;11.38;;;5.20;;
52686;SDS011;38584;49.426;8.396;2023-01-28T09:59:18;13.73;;;5.53;;
52686;SDS011;38584;49.426;8.396;2023-01-28T10:01:46;14.10;;;5.47;;
52686;SDS011;38584;49.426;8.396;2023-01-28T10:04:20;13.55;;;5.10;;
52686;SDS011;38584;49.426;8.396;2023-01-28T10:07:09;13.48;;;5.22;;
52686;SDS011;38584;49.426;8.396;2023-01-28T10:09:49;15.15;;;5.70;;
52686;SDS011;38584;49.426;8.396;2023-01-28T10:17:56;13.88;;;5.68;;
52686;SDS011;38584;49.426;8.396;2023-01-28T10:20:30;13.55;;;5.30;;
52686;SDS011;38584;49.426;8.396;2023-01-28T10:23:05;12.68;;;5.47;;
52686;SDS011;38584;49.426;8.396;2023-01-28T10:25:43;14.75;;;5.78;;
52686;SDS011;38584;49.426;8.396;2023-01-28T10:28:30;14.40;;;4.72;;
52686;SDS011;38584;49.426;8.396;2023-01-28T10:30:58;13.30;;;5.40;;
52686;SDS011;38584;49.426;8.396;2023-01-28T10:33:35;14.18;;;5.55;;
52686;SDS011;38584;49.426;8.396;2023-01-28T10:36:01;14.32;;;5.03;;
52686;SDS011;38584;49.426;8.396;2023-01-28T10:38:30;15.35;;;5.28;;
52686;SDS011;38584;49.426;8.396;2023-01-28T10:40:57;12.13;;;5.28;;
52686;SDS011;38584;49.426;8.396;2023-01-28T10:43:30;11.35;;;4.90;;
52686;SDS011;38584;49.426;8.396;2023-01-28T10:48:47;13.65;;;5.18;;
52686;SDS011;38584;49.426;8.396;2023-01-28T10:51:28;13.02;;;4.85;;
52686;SDS011;38584;49.426;8.396;2023-01-28T10:53:55;14.50;;;5.70;;
52686;SDS011;38584;49.426;8.396;2023-01-28T10:56:28;15.25;;;4.90;;
52686;SDS011;38584;49.426;8.396;2023-01-28T11:01:48;12.30;;;4.97;;
52686;SDS011;38584;49.426;8.396;2023-01-28T11:04:20;11.10;;;4.70;;
52686;SDS011;38584;49.426;8.396;2023-01-28T11:06:51;14.43;;;4.60;;
52686;SDS011;38584;49.426;8.396;2023-01-28T11:09:24;11.48;;;4.38;;
52686;SDS011;38584;49.426;8.396;2023-01-28T11:11:57;10.25;;;3.83;;
52686;SDS011;38584;49.426;8.396;2023-01-28T11:14:24;11.23;;;4.72;;
52686;SDS011;38584;49.426;8.396;2023-01-28T11:16:51;10.68;;;4.20;;
52686;SDS011;38584;49.426;8.396;2023-01-28T11:19:18;14.68;;;4.40;;
52686;SDS011;38584;49.426;8.396;2023-01-28T11:21:48;11.07;;;4.30;;
52686;SDS011;38584;49.426;8.396;2023-01-28T11:24:27;15.20;;;5.20;;
52686;SDS011;38584;49.426;8.396;2023-01-28T11:26:54;15.70;;;4.85;;
52686;SDS011;38584;49.426;8.396;2023-01-28T11:29:21;11.73;;;4.32;;
52686;SDS011;38584;49.426;8.396;2023-01-28T11:31:49;13.20;;;4.85;;
52686;SDS011;38584;49.426;8.396;2023-01-28T11:34:15;11.65;;;4.68;;
52686;SDS011;38584;49.426;8.396;2023-01-28T11:36:49;13.52;;;4.65;;
52686;SDS011;38584;49.426;8.396;2023-01-28T11:39:21;13.27;;;4.82;;
52686;SDS011;38584;49.426;8.396;2023-01-28T11:42:08;11.57;;;4.40;;
52686;SDS011;38584;49.426;8.396;2023-01-28T11:44:42;11.07;;;4.18;;
52686;SDS011;38584;49.426;8.396;2023-01-28T11:55:34;13.57;;;4.55;;
52686;SDS011;38584;49.426;8.396;2023-01-28T11:58:20;15.32;;;5.13;;
52686;SDS011;38584;49.426;8.396;2023-01-28T12:00:51;11.68;;;4.38;;
52686;SDS011;38584;49.426;8.396;2023-01-28T12:12:34;9.60;;;3.47;;
52686;SDS011;38584;49.426;8.396;2023-01-28T12:15:05;10.57;;;3.60;;
52686;SDS011;38584;49.426;8.396;2023-01-28T12:28:34;8.45;;;3.25;;
52686;SDS011;38584;49.426;8.396;2023-01-28T12:36:56;7.97;;;2.85;;
52686;SDS011;38584;49.426;8.396;2023-01-28T12:42:37;10.60;;;3.28;;
52686;SDS011;38584;49.426;8.396;2023-01-28T12:51:18;8.00;;;2.90;;
52686;SDS011;38584;49.426;8.396;2023-01-28T12:53:48;6.45;;;2.60;;
52686;SDS011;38584;49.426;8.396;2023-01-28T12:56:17;8.32;;;2.60;;
52686;SDS011;38584;49.426;8.396;2023-01-28T12:58:49;11.63;;;2.70;;
52686;SDS011;38584;49.426;8.396;2023-01-28T13:01:20;10.85;;;2.90;;
52686;SDS011;38584;49.426;8.396;2023-01-28T13:06:46;6.97;;;2.60;;
52686;SDS011;38584;49.426;8.396;2023-01-28T13:09:18;5.72;;;2.25;;
52686;SDS011;38584;49.426;8.396;2023-01-28T13:11:48;6.63;;;2.35;;
52686;SDS011;38584;49.426;8.396;2023-01-28T13:14:15;5.63;;;1.95;;
52686;SDS011;38584;49.426;8.396;2023-01-28T13:16:41;8.60;;;2.05;;
52686;SDS011;38584;49.426;8.396;2023-01-28T13:19:07;4.55;;;1.90;;
52686;SDS011;38584;49.426;8.396;2023-01-28T13:21:52;7.00;;;2.25;;
52686;SDS011;38584;49.426;8.396;2023-01-28T13:24:19;5.70;;;1.92;;
52686;SDS011;38584;49.426;8.396;2023-01-28T13:26:50;5.78;;;2.25;;
52686;SDS011;38584;49.426;8.396;2023-01-28T13:31:49;5.32;;;2.17;;
52686;SDS011;38584;49.426;8.396;2023-01-28T13:36:58;4.57;;;2.25;;
52686;SDS011;38584;49.426;8.396;2023-01-28T13:39:28;4.65;;;2.00;;
52686;SDS011;38584;49.426;8.396;2023-01-28T13:42:08;5.72;;;2.20;;
52686;SDS011;38584;49.426;8.396;2023-01-28T13:44:37;4.95;;;2.15;;
52686;SDS011;38584;49.426;8.396;2023-01-28T13:47:19;6.18;;;2.28;;
52686;SDS011;38584;49.426;8.396;2023-01-28T13:49:57;6.95;;;2.80;;
52686;SDS011;38584;49.426;8.396;2023-01-28T13:55:24;7.05;;;2.40;;
52686;SDS011;38584;49.426;8.396;2023-01-28T13:58:06;9.95;;;2.80;;
52686;SDS011;38584;49.426;8.396;2023-01-28T14:00:54;9.80;;;2.13;;
52686;SDS011;38584;49.426;8.396;2023-01-28T14:03:55;7.20;;;2.53;;
52686;SDS011;38584;49.426;8.396;2023-01-28T14:09:39;5.60;;;2.55;;
52686;SDS011;38584;49.426;8.396;2023-01-28T14:12:21;10.32;;;3.63;;
52686;SDS011;38584;49.426;8.396;2023-01-28T14:17:58;10.73;;;3.15;;
52686;SDS011;38584;49.426;8.396;2023-01-28T14:20:25;8.93;;;3.25;;
52686;SDS011;38584;49.426;8.396;2023-01-28T14:23:00;10.75;;;3.72;;
52686;SDS011;38584;49.426;8.396;2023-01-28T14:25:40;9.70;;;3.37;;
52686;SDS011;38584;49.426;8.396;2023-01-28T14:28:26;10.13;;;3.53;;
52686;SDS011;38584;49.426;8.396;2023-01-28T14:31:48;10.90;;;4.28;;
52686;SDS011;38584;49.426;8.396;2023-01-28T14:33:52;11.05;;;4.50;;
52686;SDS011;38584;49.426;8.396;2023-01-28T14:36:22;9.48;;;4.10;;
52686;SDS011;38584;49.426;8.396;2023-01-28T14:38:47;14.70;;;5.63;;
52686;SDS011;38584;49.426;8.396;2023-01-28T14:41:31;12.93;;;4.93;;
52686;SDS011;38584;49.426;8.396;2023-01-28T14:43:57;11.52;;;4.80;;
52686;SDS011;38584;49.426;8.396;2023-01-28T14:46:40;13.43;;;5.13;;
52686;SDS011;38584;49.426;8.396;2023-01-28T14:52:21;14.88;;;5.18;;
52686;SDS011;38584;49.426;8.396;2023-01-28T14:57:54;13.82;;;5.10;;
52686;SDS011;38584;49.426;8.396;2023-01-28T15:00:26;10.75;;;4.80;;
52686;SDS011;38584;49.426;8.396;2023-01-28T15:02:53;12.57;;;5.20;;
52686;SDS011;38584;49.426;8.396;2023-01-28T15:05:23;12.30;;;5.47;;
52686;SDS011;38584;49.426;8.396;2023-01-28T15:07:50;12.88;;;5.35;;
52686;SDS011;38584;49.426;8.396;2023-01-28T15:10:36;12.93;;;5.45;;
52686;SDS011;38584;49.426;8.396;2023-01-28T15:15:56;13.00;;;5.63;;
52686;SDS011;38584;49.426;8.396;2023-01-28T15:18:37;12.30;;;5.53;;
52686;SDS011;38584;49.426;8.396;2023-01-28T15:21:17;14.30;;;5.65;;
52686;SDS011;38584;49.426;8.396;2023-01-28T15:23:50;12.32;;;4.88;;
52686;SDS011;38584;49.426;8.396;2023-01-28T15:26:18;15.80;;;5.45;;
52686;SDS011;38584;49.426;8.396;2023-01-28T15:28:52;12.75;;;5.25;;
52686;SDS011;38584;49.426;8.396;2023-01-28T15:31:25;14.43;;;5.13;;
52686;SDS011;38584;49.426;8.396;2023-01-28T15:33:56;12.98;;;5.40;;
52686;SDS011;38584;49.426;8.396;2023-01-28T15:36:42;15.48;;;4.63;;
52686;SDS011;38584;49.426;8.396;2023-01-28T15:39:14;10.13;;;4.00;;
52686;SDS011;38584;49.426;8.396;2023-01-28T15:41:58;12.57;;;4.65;;
52686;SDS011;38584;49.426;8.396;2023-01-28T15:44:29;10.13;;;3.97;;
52686;SDS011;38584;49.426;8.396;2023-01-28T15:46:59;10.95;;;4.22;;
52686;SDS011;38584;49.426;8.396;2023-01-28T15:49:33;9.05;;;3.75;;
52686;SDS011;38584;49.426;8.396;2023-01-28T15:51:59;11.75;;;4.57;;
52686;SDS011;38584;49.426;8.396;2023-01-28T15:54:28;10.38;;;4.15;;
52686;SDS011;38584;49.426;8.396;2023-01-28T15:56:54;10.55;;;4.22;;
52686;SDS011;38584;49.426;8.396;2023-01-28T15:59:35;13.23;;;4.00;;
52686;SDS011;38584;49.426;8.396;2023-01-28T16:02:17;12.57;;;4.63;;
52686;SDS011;38584;49.426;8.396;2023-01-28T16:05:03;11.82;;;5.07;;
52686;SDS011;38584;49.426;8.396;2023-01-28T16:07:42;17.10;;;7.18;;
52686;SDS011;38584;49.426;8.396;2023-01-28T16:10:19;15.93;;;5.60;;
52686;SDS011;38584;49.426;8.396;2023-01-28T16:12:50;11.57;;;4.78;;
52686;SDS011;38584;49.426;8.396;2023-01-28T16:15:20;10.55;;;4.35;;
52686;SDS011;38584;49.426;8.396;2023-01-28T16:17:46;14.73;;;5.38;;
52686;SDS011;38584;49.426;8.396;2023-01-28T16:20:24;14.10;;;5.63;;
52686;SDS011;38584;49.426;8.396;2023-01-28T16:22:50;11.40;;;4.97;;
52686;SDS011;38584;49.426;8.396;2023-01-28T16:27:55;11.80;;;4.85;;
52686;SDS011;38584;49.426;8.396;2023-01-28T16:30:21;10.88;;;4.43;;
52686;SDS011;38584;49.426;8.396;2023-01-28T16:32:50;11.93;;;4.90;;
52686;SDS011;38584;49.426;8.396;2023-01-28T16:35:20;10.20;;;4.45;;
52686;SDS011;38584;49.426;8.396;2023-01-28T16:37:49;12.68;;;4.43;;
52686;SDS011;38584;49.426;8.396;2023-01-28T16:40:16;10.05;;;4.03;;
52686;SDS011;38584;49.426;8.396;2023-01-28T16:42:43;10.50;;;4.35;;
52686;SDS011;38584;49.426;8.396;2023-01-28T16:45:15;10.50;;;4.30;;
52686;SDS011;38584;49.426;8.396;2023-01-28T16:47:42;12.00;;;4.60;;
52686;SDS011;38584;49.426;8.396;2023-01-28T16:50:08;13.48;;;4.30;;
52686;SDS011;38584;49.426;8.396;2023-01-28T16:52:47;11.35;;;4.50;;
52686;SDS011;38584;49.426;8.396;2023-01-28T16:55:18;11.68;;;4.70;;